createdAt,value
2023-02-13T00:00:53.201Z,103397.06
2023-02-13T00:03:20.234Z,103390.41
2023-02-13T00:05:47.217Z,103395.22
2023-02-13T00:08:14.272Z,103399.97
2023-02-13T00:10:41.287Z,103401.13
2023-02-13T00:13:08.349Z,103393.66
2023-02-13T00:15:35.371Z,103388.13
2023-02-13T00:18:03.556Z,103389.84
2023-02-13T00:20:30.589Z,103387.56
2023-02-13T00:22:59.670Z,103387.66
2023-02-13T00:25:27.192Z,103388.88
2023-02-13T00:27:54.171Z,103389.38
2023-02-13T00:30:22.856Z,103381.75
2023-02-13T00:32:49.912Z,103380.97
2023-02-13T00:35:17.002Z,103392.97
2023-02-13T00:37:43.960Z,103387.22
2023-02-13T00:40:11.787Z,103381.41
2023-02-13T00:42:38.831Z,103387.78
2023-02-13T00:45:06.063Z,103388.03
2023-02-13T00:47:33.111Z,103391.13
2023-02-13T00:50:00.249Z,103387.63
2023-02-13T00:52:27.184Z,103395.19
2023-02-13T00:54:54.176Z,103391.25
2023-02-13T00:57:21.260Z,103395.44
2023-02-13T00:59:51.159Z,103382.59
2023-02-13T01:02:18.818Z,103393.91
2023-02-13T01:04:45.809Z,103399.13
2023-02-13T01:07:13.223Z,103397.06
2023-02-13T01:09:40.954Z,103395.66
2023-02-13T01:12:09.574Z,103402.47
2023-02-13T01:14:36.823Z,103395.19
2023-02-13T01:17:03.851Z,103394.97
2023-02-13T01:19:30.779Z,103395.16
2023-02-13T01:21:57.714Z,103386.97
2023-02-13T01:24:24.864Z,103388.03
2023-02-13T01:26:51.806Z,103395.63
2023-02-13T01:29:18.758Z,103401.88
2023-02-13T01:31:45.997Z,103404.63
2023-02-13T01:34:13.032Z,103404.13
2023-02-13T01:36:39.986Z,103406.41
2023-02-13T01:39:06.937Z,103400.31
2023-02-13T01:41:33.914Z,103406.94
2023-02-13T01:44:02.269Z,103401.00
2023-02-13T01:46:39.625Z,103404.25
2023-02-13T01:49:14.826Z,103396.34
2023-02-13T01:51:43.273Z,103394.59
2023-02-13T01:54:18.506Z,103399.88
2023-02-13T01:56:50.759Z,103396.94
2023-02-13T01:59:25.335Z,103389.16
2023-02-13T02:01:52.842Z,103376.44
2023-02-13T02:04:32.121Z,103377.28
2023-02-13T02:07:09.229Z,103375.84
2023-02-13T02:09:40.636Z,103373.09
2023-02-13T02:12:34.275Z,103369.06
2023-02-13T02:15:04.120Z,103371.94
2023-02-13T02:17:31.685Z,103368.88
2023-02-13T02:20:04.925Z,103360.47
2023-02-13T02:23:01.957Z,103360.09
2023-02-13T02:25:59.663Z,103364.38
2023-02-13T02:28:58.134Z,103355.34
2023-02-13T02:32:12.507Z,103359.00
2023-02-13T02:35:00.076Z,103346.50
2023-02-13T02:37:47.989Z,103351.41
2023-02-13T02:40:25.495Z,103359.94
2023-02-13T02:43:28.489Z,103353.31
2023-02-13T02:46:13.889Z,103353.00
2023-02-13T02:49:13.803Z,103346.41
2023-02-13T02:52:05.276Z,103352.44
2023-02-13T02:55:05.918Z,103359.31
2023-02-13T02:58:17.009Z,103369.00
2023-02-13T03:01:03.428Z,103368.44
2023-02-13T03:03:49.551Z,103369.34
2023-02-13T03:06:25.920Z,103368.19
2023-02-13T03:09:17.275Z,103368.13
2023-02-13T03:12:13.641Z,103375.09
2023-02-13T03:14:41.908Z,103362.88
2023-02-13T03:17:32.154Z,103375.31
2023-02-13T03:20:23.683Z,103362.97
2023-02-13T03:23:05.117Z,103366.84
2023-02-13T03:26:02.600Z,103365.19
2023-02-13T03:29:06.166Z,103362.88
2023-02-13T03:31:39.571Z,103362.25
2023-02-13T03:34:14.019Z,103360.84
2023-02-13T03:37:19.192Z,103369.28
2023-02-13T03:40:36.060Z,103365.00
2023-02-13T03:43:12.654Z,103351.66
2023-02-13T03:45:54.619Z,103364.44
2023-02-13T03:48:46.303Z,103363.94
2023-02-13T03:51:24.435Z,103363.28
2023-02-13T03:54:00.494Z,103356.16
2023-02-13T03:56:48.853Z,103360.75
2023-02-13T03:59:29.217Z,103367.31
2023-02-13T04:02:15.208Z,103365.16
2023-02-13T04:05:17.442Z,103367.69
2023-02-13T04:07:44.474Z,103367.44
2023-02-13T04:10:17.596Z,103366.56
2023-02-13T04:13:09.744Z,103362.72
2023-02-13T04:15:54.525Z,103361.06
2023-02-13T04:18:27.046Z,103356.75
2023-02-13T04:20:54.056Z,103362.50
2023-02-13T04:23:21.100Z,103352.78
2023-02-13T04:25:52.764Z,103349.16
2023-02-13T04:28:19.759Z,103362.03
2023-02-13T04:30:46.816Z,103355.28
2023-02-13T04:33:13.965Z,103357.84
2023-02-13T04:35:40.969Z,103358.81
2023-02-13T04:38:08.005Z,103356.19
2023-02-13T04:40:35.060Z,103357.13
2023-02-13T04:43:02.263Z,103361.50
2023-02-13T04:45:29.252Z,103364.59
2023-02-13T04:47:57.622Z,103360.22
2023-02-13T04:50:25.612Z,103364.50
2023-02-13T04:52:57.786Z,103358.81
2023-02-13T04:55:27.604Z,103367.75
2023-02-13T04:57:57.746Z,103362.03
2023-02-13T05:00:28.171Z,103360.16
2023-02-13T05:03:00.812Z,103370.16
2023-02-13T05:05:27.837Z,103370.00
2023-02-13T05:07:54.873Z,103361.28
2023-02-13T05:10:21.846Z,103354.63
2023-02-13T05:12:48.989Z,103355.66
2023-02-13T05:15:16.105Z,103349.78
2023-02-13T05:17:47.238Z,103360.41
2023-02-13T05:20:15.238Z,103360.53
2023-02-13T05:23:11.689Z,103358.03
2023-02-13T05:25:41.344Z,103353.13
2023-02-13T05:28:41.300Z,103348.03
2023-02-13T05:31:08.592Z,103345.72
2023-02-13T05:33:35.780Z,103346.41
2023-02-13T05:36:02.880Z,103351.03
2023-02-13T05:38:29.844Z,103350.63
2023-02-13T05:41:00.575Z,103347.34
2023-02-13T05:43:29.698Z,103346.72
2023-02-13T05:46:05.251Z,103359.44
2023-02-13T05:48:32.764Z,103355.47
2023-02-13T05:50:59.861Z,103351.16
2023-02-13T05:53:27.511Z,103356.34
2023-02-13T05:55:54.509Z,103361.47
2023-02-13T05:58:22.180Z,103362.44
2023-02-13T06:00:49.334Z,103360.81
2023-02-13T06:03:16.300Z,103359.38
2023-02-13T06:05:43.281Z,103356.00
2023-02-13T06:08:10.472Z,103353.53
2023-02-13T06:10:37.574Z,103356.94
2023-02-13T06:13:04.738Z,103358.88
2023-02-13T06:15:31.839Z,103353.06
2023-02-13T06:17:58.930Z,103351.22
2023-02-13T06:20:25.931Z,103365.69
2023-02-13T06:22:53.497Z,103361.53
2023-02-13T06:25:20.864Z,103366.22
2023-02-13T06:27:48.969Z,103369.13
2023-02-13T06:30:17.103Z,103372.66
2023-02-13T06:32:44.455Z,103358.16
2023-02-13T06:35:11.415Z,103366.03
2023-02-13T06:37:39.377Z,103357.94
2023-02-13T06:40:08.180Z,103369.84
2023-02-13T06:42:35.223Z,103376.84
2023-02-13T06:45:03.098Z,103376.50
2023-02-13T06:47:30.132Z,103380.56
2023-02-13T06:49:57.095Z,103383.16
2023-02-13T06:52:24.152Z,103369.28
2023-02-13T06:54:51.108Z,103377.25
2023-02-13T06:57:18.129Z,103371.25
2023-02-13T06:59:45.154Z,103387.84
2023-02-13T07:02:13.346Z,103382.00
2023-02-13T07:04:40.512Z,103379.28
2023-02-13T07:07:07.492Z,103380.63
2023-02-13T07:09:34.484Z,103382.06
2023-02-13T07:12:05.778Z,103386.50
2023-02-13T07:14:32.792Z,103380.75
2023-02-13T07:16:59.716Z,103381.75
2023-02-13T07:19:26.771Z,103387.56
2023-02-13T07:21:53.771Z,103387.13
2023-02-13T07:24:20.829Z,103386.72
2023-02-13T07:26:47.845Z,103386.03
2023-02-13T07:29:15.851Z,103385.84
2023-02-13T07:31:42.900Z,103387.13
2023-02-13T07:34:09.918Z,103387.03
2023-02-13T07:36:37.135Z,103391.47
2023-02-13T07:39:04.192Z,103393.00
2023-02-13T07:41:31.120Z,103394.09
2023-02-13T07:43:58.079Z,103393.22
2023-02-13T07:46:25.105Z,103391.81
2023-02-13T07:48:55.157Z,103394.81
2023-02-13T07:51:25.392Z,103394.34
2023-02-13T07:53:53.186Z,103386.19
2023-02-13T07:56:20.139Z,103393.06
2023-02-13T07:58:47.225Z,103388.75
2023-02-13T08:01:16.854Z,103397.34
2023-02-13T08:03:43.925Z,103393.13
2023-02-13T08:06:10.962Z,103394.38
2023-02-13T08:08:38.862Z,103399.22
2023-02-13T08:11:31.299Z,103393.84
2023-02-13T08:13:58.278Z,103406.13
2023-02-13T08:16:25.320Z,103396.13
2023-02-13T08:18:52.294Z,103398.41
2023-02-13T08:21:19.215Z,103394.09
2023-02-13T08:23:46.204Z,103386.66
2023-02-13T08:26:13.188Z,103383.59
2023-02-13T08:28:40.288Z,103390.25
2023-02-13T08:31:13.708Z,103388.47
2023-02-13T08:33:41.619Z,103388.66
2023-02-13T08:36:09.175Z,103391.31
2023-02-13T08:38:36.168Z,103401.38
2023-02-13T08:41:03.728Z,103399.16
2023-02-13T08:43:30.712Z,103393.16
2023-02-13T08:46:01.470Z,103396.50
2023-02-13T08:48:28.624Z,103394.63
2023-02-13T08:50:55.849Z,103390.06
2023-02-13T08:53:22.838Z,103404.97
2023-02-13T08:55:57.868Z,103393.38
2023-02-13T08:58:25.221Z,103398.69
2023-02-13T09:00:54.065Z,103393.91
2023-02-13T09:03:21.049Z,103396.03
2023-02-13T09:05:49.068Z,103396.16
2023-02-13T09:08:17.920Z,103385.53
2023-02-13T09:10:45.943Z,103394.72
2023-02-13T09:13:13.208Z,103397.19
2023-02-13T09:15:40.876Z,103391.22
2023-02-13T09:18:08.561Z,103397.53
2023-02-13T09:20:36.329Z,103400.47
2023-02-13T09:23:04.377Z,103391.59
2023-02-13T09:25:31.367Z,103397.19
2023-02-13T09:28:00.231Z,103393.72
2023-02-13T09:30:27.305Z,103387.25
2023-02-13T09:32:55.568Z,103402.69
2023-02-13T09:35:23.709Z,103393.91
2023-02-13T09:37:50.638Z,103398.91
2023-02-13T09:40:32.555Z,103400.00
2023-02-13T09:43:36.584Z,103397.84
2023-02-13T09:46:32.910Z,103398.22
2023-02-13T09:49:07.694Z,103392.66
2023-02-13T09:51:35.528Z,103394.84
2023-02-13T09:54:06.107Z,103393.81
2023-02-13T09:57:03.405Z,103386.41
2023-02-13T09:59:58.901Z,103391.22
2023-02-13T10:02:49.870Z,103387.19
2023-02-13T10:05:37.186Z,103389.94
2023-02-13T10:08:11.327Z,103390.03
2023-02-13T10:11:17.011Z,103380.50
2023-02-13T10:14:01.725Z,103390.41
2023-02-13T10:16:44.505Z,103393.66
2023-02-13T10:19:35.977Z,103392.31
2023-02-13T10:22:13.264Z,103386.00
2023-02-13T10:24:48.350Z,103380.44
2023-02-13T10:27:28.949Z,103381.72
2023-02-13T10:30:19.754Z,103381.63
2023-02-13T10:33:19.452Z,103385.22
2023-02-13T10:36:09.249Z,103379.66
2023-02-13T10:38:44.093Z,103380.47
2023-02-13T10:41:49.063Z,103382.88
2023-02-13T10:44:38.761Z,103374.72
2023-02-13T10:47:27.145Z,103370.78
2023-02-13T10:50:50.564Z,103376.28
2023-02-13T10:54:03.845Z,103363.66
2023-02-13T10:57:11.188Z,103363.78
2023-02-13T11:00:01.600Z,103361.94
2023-02-13T11:02:36.925Z,103352.78
2023-02-13T11:05:26.194Z,103354.97
2023-02-13T11:07:53.104Z,103358.28
2023-02-13T11:10:24.678Z,103352.09
2023-02-13T11:12:52.733Z,103348.97
2023-02-13T11:15:30.200Z,103347.47
2023-02-13T11:18:13.845Z,103357.63
2023-02-13T11:20:48.179Z,103346.25
2023-02-13T11:23:24.092Z,103351.94
2023-02-13T11:26:02.982Z,103352.84
2023-02-13T11:28:36.627Z,103349.31
2023-02-13T11:31:37.875Z,103349.09
2023-02-13T11:34:26.140Z,103339.56
2023-02-13T11:37:29.627Z,103350.97
2023-02-13T11:40:00.022Z,103338.94
2023-02-13T11:42:35.054Z,103332.00
2023-02-13T11:45:22.879Z,103333.75
2023-02-13T11:47:50.113Z,103332.44
2023-02-13T11:50:40.468Z,103320.69
2023-02-13T11:53:25.686Z,103312.25
2023-02-13T11:56:13.592Z,103317.91
2023-02-13T11:58:41.978Z,103332.84
2023-02-13T12:01:21.143Z,103314.63
2023-02-13T12:04:19.154Z,103313.47
2023-02-13T12:07:06.662Z,103310.16
2023-02-13T12:09:33.716Z,103307.44
2023-02-13T12:12:05.405Z,103306.47
2023-02-13T12:14:41.107Z,103308.25
2023-02-13T12:17:30.793Z,103311.06
2023-02-13T12:19:59.426Z,103308.13
2023-02-13T12:22:30.619Z,103291.63
2023-02-13T12:25:31.718Z,103288.28
2023-02-13T12:28:17.312Z,103287.94
2023-02-13T12:31:05.678Z,103286.16
2023-02-13T12:33:54.224Z,103286.72
2023-02-13T12:36:46.763Z,103288.06
2023-02-13T12:39:28.641Z,103284.00
2023-02-13T12:42:06.780Z,103284.44
2023-02-13T12:45:13.852Z,103287.50
2023-02-13T12:48:33.136Z,103282.16
2023-02-13T12:51:10.932Z,103277.25
2023-02-13T12:53:56.550Z,103277.69
2023-02-13T12:56:35.325Z,103274.56
2023-02-13T12:59:20.496Z,103270.44
2023-02-13T13:02:14.077Z,103267.09
2023-02-13T13:05:32.930Z,103264.47
2023-02-13T13:08:11.694Z,103261.72
2023-02-13T13:11:23.145Z,103259.13
2023-02-13T13:14:03.528Z,103259.53
2023-02-13T13:16:49.829Z,103258.28
2023-02-13T13:19:43.915Z,103253.78
2023-02-13T13:22:30.637Z,103245.78
2023-02-13T13:25:19.985Z,103241.81
2023-02-13T13:27:53.190Z,103245.56
2023-02-13T13:30:34.431Z,103238.59
2023-02-13T13:33:23.177Z,103240.72
2023-02-13T13:36:32.220Z,103232.16
2023-02-13T13:39:09.244Z,103233.34
2023-02-13T13:42:01.029Z,103232.13
2023-02-13T13:44:51.354Z,103235.97
2023-02-13T13:48:11.106Z,103236.44
2023-02-13T13:50:41.968Z,103227.31
2023-02-13T13:53:19.361Z,103227.38
2023-02-13T13:56:09.415Z,103224.97
2023-02-13T13:58:46.888Z,103218.94
2023-02-13T14:01:32.182Z,103225.47
2023-02-13T14:04:24.499Z,103220.22
2023-02-13T14:07:14.737Z,103217.75
2023-02-13T14:09:43.905Z,103212.63
2023-02-13T14:12:50.318Z,103210.47
2023-02-13T14:15:38.094Z,103207.25
2023-02-13T14:18:22.252Z,103215.75
2023-02-13T14:20:51.752Z,103209.16
2023-02-13T14:24:04.188Z,103212.22
2023-02-13T14:26:35.283Z,103204.75
2023-02-13T14:29:11.216Z,103198.09
2023-02-13T14:31:42.813Z,103206.47
2023-02-13T14:34:22.661Z,103204.53
2023-02-13T14:37:10.551Z,103209.91
2023-02-13T14:39:42.067Z,103207.84
2023-02-13T14:42:29.831Z,103191.16
2023-02-13T14:45:00.341Z,103200.63
2023-02-13T14:47:56.470Z,103193.94
2023-02-13T14:50:30.049Z,103197.56
2023-02-13T14:53:01.405Z,103195.75
2023-02-13T14:55:40.631Z,103195.59
2023-02-13T14:58:20.516Z,103191.16
2023-02-13T15:01:03.538Z,103194.03
2023-02-13T15:03:58.337Z,103190.50
2023-02-13T15:06:30.212Z,103195.53
2023-02-13T15:09:00.322Z,103203.13
2023-02-13T15:11:43.061Z,103198.41
2023-02-13T15:14:25.737Z,103193.25
2023-02-13T15:17:04.063Z,103198.34
2023-02-13T15:19:31.104Z,103194.78
2023-02-13T15:22:01.577Z,103185.69
2023-02-13T15:24:44.662Z,103191.44
2023-02-13T15:27:31.137Z,103192.78
2023-02-13T15:30:24.506Z,103191.53
2023-02-13T15:33:01.256Z,103191.44
2023-02-13T15:35:37.186Z,103197.69
2023-02-13T15:38:30.164Z,103191.41
2023-02-13T15:41:06.811Z,103186.38
2023-02-13T15:43:45.190Z,103184.69
2023-02-13T15:46:28.434Z,103184.63
2023-02-13T15:48:58.952Z,103182.50
2023-02-13T15:51:30.989Z,103182.75
2023-02-13T15:54:06.546Z,103181.41
2023-02-13T15:56:34.690Z,103179.16
2023-02-13T15:59:02.969Z,103177.25
2023-02-13T16:01:32.107Z,103190.88
2023-02-13T16:04:06.541Z,103180.19
2023-02-13T16:06:34.469Z,103176.34
2023-02-13T16:09:03.408Z,103179.34
2023-02-13T16:11:41.539Z,103183.06
2023-02-13T16:14:14.383Z,103179.47
2023-02-13T16:17:07.474Z,103182.16
2023-02-13T16:19:51.498Z,103178.41
2023-02-13T16:22:39.258Z,103174.69
2023-02-13T16:25:12.132Z,103183.69
2023-02-13T16:27:50.942Z,103181.53
2023-02-13T16:30:38.839Z,103175.09
2023-02-13T16:33:20.838Z,103174.03
2023-02-13T16:35:59.021Z,103171.28
2023-02-13T16:38:34.553Z,103178.00
2023-02-13T16:41:07.082Z,103178.94
2023-02-13T16:43:37.214Z,103185.00
2023-02-13T16:46:39.791Z,103182.13
2023-02-13T16:49:09.878Z,103186.66
2023-02-13T16:51:49.250Z,103185.84
2023-02-13T16:54:28.729Z,103176.44
2023-02-13T16:57:06.519Z,103184.38
2023-02-13T16:59:36.509Z,103183.81
2023-02-13T17:02:34.203Z,103186.25
2023-02-13T17:05:09.958Z,103185.66
2023-02-13T17:07:39.280Z,103185.38
2023-02-13T17:10:36.566Z,103182.09
2023-02-13T17:13:17.634Z,103192.03
2023-02-13T17:15:49.037Z,103195.69
2023-02-13T17:18:16.018Z,103197.81
2023-02-13T17:20:44.584Z,103194.19
2023-02-13T17:23:24.000Z,103205.63
2023-02-13T17:25:52.770Z,103198.69
2023-02-13T17:28:29.279Z,103195.31
2023-02-13T17:30:58.810Z,103198.81
2023-02-13T17:33:32.999Z,103197.03
2023-02-13T17:36:00.004Z,103193.53
2023-02-13T17:38:27.029Z,103195.63
2023-02-13T17:40:54.242Z,103191.47
2023-02-13T17:43:21.592Z,103196.28
2023-02-13T17:45:50.000Z,103205.03
2023-02-13T17:48:17.389Z,103194.91
2023-02-13T17:50:44.466Z,103199.31
2023-02-13T17:53:27.236Z,103197.25
2023-02-13T17:55:54.242Z,103205.53
2023-02-13T17:58:21.335Z,103209.47
2023-02-13T18:00:48.766Z,103205.84
2023-02-13T18:03:15.902Z,103207.06
2023-02-13T18:05:42.899Z,103209.53
2023-02-13T18:08:10.096Z,103202.59
2023-02-13T18:10:37.994Z,103216.19
2023-02-13T18:13:05.755Z,103208.97
2023-02-13T18:15:35.457Z,103201.09
2023-02-13T18:18:03.677Z,103202.53
2023-02-13T18:20:31.589Z,103209.66
2023-02-13T18:22:58.598Z,103215.38
2023-02-13T18:25:25.657Z,103213.75
2023-02-13T18:27:53.115Z,103220.25
2023-02-13T18:30:21.562Z,103214.16
2023-02-13T18:32:54.029Z,103214.75
2023-02-13T18:35:22.738Z,103225.03
2023-02-13T18:37:50.376Z,103217.34
2023-02-13T18:40:17.866Z,103218.94
2023-02-13T18:42:45.274Z,103210.16
2023-02-13T18:45:12.442Z,103210.63
2023-02-13T18:47:39.561Z,103208.50
2023-02-13T18:50:08.095Z,103203.44
2023-02-13T18:52:35.281Z,103203.34
2023-02-13T18:55:03.270Z,103202.03
2023-02-13T18:57:30.281Z,103197.00
2023-02-13T18:59:57.270Z,103206.56
2023-02-13T19:02:24.292Z,103198.16
2023-02-13T19:04:51.415Z,103198.66
2023-02-13T19:07:18.425Z,103194.59
2023-02-13T19:09:47.129Z,103199.59
2023-02-13T19:12:14.348Z,103198.19
2023-02-13T19:14:41.305Z,103189.44
2023-02-13T19:17:09.397Z,103194.09
2023-02-13T19:19:37.209Z,103200.16
2023-02-13T19:22:04.391Z,103203.66
2023-02-13T19:24:31.480Z,103211.06
2023-02-13T19:27:08.594Z,103206.97
2023-02-13T19:29:35.531Z,103202.34
2023-02-13T19:32:02.610Z,103209.94
2023-02-13T19:34:29.700Z,103199.59
2023-02-13T19:36:56.645Z,103209.16
2023-02-13T19:39:23.616Z,103209.81
2023-02-13T19:41:50.574Z,103208.03
2023-02-13T19:44:17.637Z,103208.06
2023-02-13T19:46:44.641Z,103201.75
2023-02-13T19:49:11.712Z,103203.81
2023-02-13T19:51:38.673Z,103204.28
2023-02-13T19:54:08.038Z,103202.97
2023-02-13T19:56:37.694Z,103203.88
2023-02-13T19:59:06.963Z,103205.53
2023-02-13T20:01:34.003Z,103202.00
2023-02-13T20:04:01.148Z,103206.22
2023-02-13T20:06:35.626Z,103211.69
2023-02-13T20:09:09.978Z,103212.31
2023-02-13T20:11:37.763Z,103209.88
2023-02-13T20:14:05.455Z,103212.72
2023-02-13T20:16:35.519Z,103213.38
2023-02-13T20:19:09.557Z,103216.19
2023-02-13T20:21:36.794Z,103213.97
2023-02-13T20:24:04.893Z,103214.47
2023-02-13T20:26:32.495Z,103217.25
2023-02-13T20:29:00.535Z,103213.69
2023-02-13T20:31:29.923Z,103205.44
2023-02-13T20:33:57.998Z,103212.75
2023-02-13T20:36:29.021Z,103212.03
2023-02-13T20:39:00.060Z,103208.88
2023-02-13T20:41:30.830Z,103213.09
2023-02-13T20:44:07.884Z,103220.97
2023-02-13T20:46:38.411Z,103215.97
2023-02-13T20:49:06.379Z,103219.84
2023-02-13T20:51:33.524Z,103223.94
2023-02-13T20:54:00.490Z,103221.72
2023-02-13T20:56:28.361Z,103216.88
2023-02-13T20:59:00.421Z,103218.47
2023-02-13T21:01:33.853Z,103223.94
2023-02-13T21:04:01.385Z,103209.94
2023-02-13T21:06:35.632Z,103215.41
2023-02-13T21:09:05.911Z,103208.69
2023-02-13T21:11:34.507Z,103214.91
2023-02-13T21:14:03.514Z,103212.47
2023-02-13T21:16:37.699Z,103211.66
2023-02-13T21:19:09.315Z,103212.09
2023-02-13T21:21:37.541Z,103207.47
2023-02-13T21:24:08.789Z,103207.38
2023-02-13T21:26:36.290Z,103214.19
2023-02-13T21:29:04.279Z,103213.56
2023-02-13T21:31:38.243Z,103216.63
2023-02-13T21:34:08.747Z,103211.47
2023-02-13T21:36:37.574Z,103221.53
2023-02-13T21:39:08.036Z,103214.06
2023-02-13T21:41:37.105Z,103215.84
2023-02-13T21:44:04.437Z,103216.69
2023-02-13T21:46:33.062Z,103216.41
2023-02-13T21:49:06.454Z,103213.88
2023-02-13T21:51:36.135Z,103210.34
2023-02-13T21:54:05.179Z,103208.38
2023-02-13T21:56:35.920Z,103208.94
2023-02-13T21:59:04.154Z,103204.03
2023-02-13T22:01:34.418Z,103215.38
2023-02-13T22:04:05.161Z,103209.63
2023-02-13T22:06:34.964Z,103203.16
2023-02-13T22:09:12.108Z,103195.47
2023-02-13T22:11:40.381Z,103195.44
2023-02-13T22:14:12.013Z,103194.88
2023-02-13T22:16:39.784Z,103196.03
2023-02-13T22:19:07.507Z,103195.81
2023-02-13T22:21:36.261Z,103189.38
2023-02-13T22:24:08.863Z,103203.03
2023-02-13T22:26:39.325Z,103200.22
2023-02-13T22:29:12.431Z,103193.94
2023-02-13T22:31:39.913Z,103198.28
2023-02-13T22:34:07.781Z,103202.50
2023-02-13T22:36:40.184Z,103203.00
2023-02-13T22:39:10.379Z,103199.81
2023-02-13T22:41:38.391Z,103199.81
2023-02-13T22:44:05.644Z,103194.28
2023-02-13T22:46:34.218Z,103203.91
2023-02-13T22:49:02.236Z,103202.72
2023-02-13T22:51:33.154Z,103199.44
2023-02-13T22:54:00.782Z,103201.50
2023-02-13T22:56:29.714Z,103202.81
2023-02-13T22:58:57.199Z,103209.25
2023-02-13T23:01:26.672Z,103213.09
2023-02-13T23:03:54.934Z,103206.91
2023-02-13T23:06:23.513Z,103208.97
2023-02-13T23:08:53.355Z,103203.94
2023-02-13T23:11:42.840Z,103205.69
2023-02-13T23:14:10.526Z,103196.25
2023-02-13T23:17:00.426Z,103195.50
2023-02-13T23:19:29.826Z,103197.19
2023-02-13T23:21:57.001Z,103205.50
2023-02-13T23:24:24.075Z,103201.94
2023-02-13T23:26:51.028Z,103204.16
2023-02-13T23:29:18.232Z,103199.59
2023-02-13T23:31:45.279Z,103194.19
2023-02-13T23:34:12.421Z,103191.91
2023-02-13T23:36:39.392Z,103194.19
2023-02-13T23:39:06.722Z,103193.81
2023-02-13T23:41:33.759Z,103187.47
2023-02-13T23:44:00.710Z,103188.41
2023-02-13T23:46:27.725Z,103192.41
2023-02-13T23:48:54.717Z,103190.66
2023-02-13T23:51:23.105Z,103185.97
2023-02-13T23:53:50.139Z,103178.66
2023-02-13T23:56:17.092Z,103184.44
2023-02-13T23:58:44.021Z,103182.09
